createdAt,value
2022-10-04T00:00:28.644Z,12.46
2022-10-04T00:03:05.386Z,12.22
2022-10-04T00:05:33.418Z,11.86
2022-10-04T00:08:29.559Z,12.18
2022-10-04T00:11:18.284Z,12.54
2022-10-04T00:13:55.486Z,12.20
2022-10-04T00:16:28.723Z,12.44
2022-10-04T00:19:19.606Z,12.50
2022-10-04T00:21:56.508Z,12.36
2022-10-04T00:24:28.698Z,12.30
2022-10-04T00:27:24.679Z,12.20
2022-10-04T00:30:23.789Z,12.51
2022-10-04T00:33:02.213Z,11.87
2022-10-04T00:35:29.126Z,12.48
2022-10-04T00:38:02.982Z,12.45
2022-10-04T00:40:33.214Z,12.47
2022-10-04T00:43:12.804Z,12.42
2022-10-04T00:46:18.968Z,12.55
2022-10-04T00:48:48.802Z,12.49
2022-10-04T00:51:24.783Z,12.46
2022-10-04T00:54:12.474Z,12.43
2022-10-04T00:57:01.935Z,12.54
2022-10-04T00:59:38.745Z,12.16
2022-10-04T01:02:11.058Z,12.30
2022-10-04T01:04:50.174Z,12.48
2022-10-04T01:07:27.328Z,12.19
2022-10-04T01:10:02.840Z,12.41
2022-10-04T01:12:32.865Z,12.32
2022-10-04T01:15:07.740Z,12.18
2022-10-04T01:17:35.147Z,12.22
2022-10-04T01:20:02.999Z,12.17
2022-10-04T01:22:44.179Z,12.42
2022-10-04T01:25:11.233Z,12.43
2022-10-04T01:27:43.932Z,12.41
2022-10-04T01:30:16.999Z,12.26
2022-10-04T01:32:45.494Z,12.29
2022-10-04T01:35:14.690Z,12.43
2022-10-04T01:37:41.902Z,12.42
2022-10-04T01:40:10.238Z,12.35
2022-10-04T01:42:55.218Z,12.35
2022-10-04T01:45:46.204Z,12.47
2022-10-04T01:48:17.436Z,12.12
2022-10-04T01:50:52.061Z,12.30
2022-10-04T01:53:20.931Z,12.15
2022-10-04T01:55:52.082Z,12.16
2022-10-04T01:58:23.746Z,12.06
2022-10-04T02:01:01.105Z,12.17
2022-10-04T02:03:43.658Z,12.23
2022-10-04T02:06:13.555Z,12.02
2022-10-04T02:08:47.239Z,11.71
2022-10-04T02:11:22.279Z,11.34
2022-10-04T02:13:53.665Z,12.16
2022-10-04T02:16:22.708Z,11.97
2022-10-04T02:18:51.709Z,12.11
2022-10-04T02:21:20.374Z,11.97
2022-10-04T02:23:48.011Z,11.84
2022-10-04T02:26:15.169Z,11.98
2022-10-04T02:28:42.448Z,11.81
2022-10-04T02:31:29.604Z,11.73
2022-10-04T02:33:59.456Z,11.90
2022-10-04T02:36:29.567Z,11.95
2022-10-04T02:39:39.097Z,12.00
2022-10-04T02:42:29.130Z,11.86
2022-10-04T02:45:10.123Z,11.93
2022-10-04T02:47:53.364Z,11.91
2022-10-04T02:50:29.826Z,11.88
2022-10-04T02:53:13.176Z,11.72
2022-10-04T02:55:43.700Z,11.89
2022-10-04T02:58:17.550Z,11.67
2022-10-04T03:00:52.132Z,11.81
2022-10-04T03:03:29.567Z,11.72
2022-10-04T03:06:02.739Z,11.58
2022-10-04T03:08:36.153Z,11.48
2022-10-04T03:11:05.303Z,11.46
2022-10-04T03:13:33.314Z,11.56
2022-10-04T03:16:01.103Z,11.44
2022-10-04T03:18:31.064Z,11.58
2022-10-04T03:21:01.729Z,11.42
2022-10-04T03:23:31.046Z,11.60
2022-10-04T03:26:04.638Z,11.56
2022-10-04T03:28:31.729Z,10.91
2022-10-04T03:30:59.025Z,11.64
2022-10-04T03:33:28.944Z,11.52
2022-10-04T03:35:58.661Z,11.57
2022-10-04T03:38:28.731Z,11.47
2022-10-04T03:40:59.328Z,11.31
2022-10-04T03:43:31.535Z,11.32
2022-10-04T03:46:00.908Z,11.48
2022-10-04T03:48:34.398Z,11.63
2022-10-04T03:51:04.397Z,11.42
2022-10-04T03:53:35.428Z,11.56
2022-10-04T03:56:09.238Z,11.61
2022-10-04T03:58:36.531Z,11.65
2022-10-04T04:01:22.096Z,11.67
2022-10-04T04:04:48.404Z,11.69
2022-10-04T04:07:25.236Z,10.77
2022-10-04T04:10:08.984Z,11.64
2022-10-04T04:12:40.737Z,11.63
2022-10-04T04:15:12.427Z,11.69
2022-10-04T04:17:47.510Z,11.52
2022-10-04T04:20:29.615Z,11.61
2022-10-04T04:23:14.783Z,11.37
2022-10-04T04:25:47.237Z,11.47
2022-10-04T04:28:34.683Z,11.71
2022-10-04T04:31:13.119Z,11.65
2022-10-04T04:33:44.503Z,11.61
2022-10-04T04:36:14.279Z,11.29
2022-10-04T04:39:01.307Z,11.59
2022-10-04T04:41:31.807Z,11.33
2022-10-04T04:43:58.914Z,11.21
2022-10-04T04:46:28.159Z,11.68
2022-10-04T04:49:02.657Z,11.61
2022-10-04T04:51:32.010Z,11.33
2022-10-04T04:54:02.195Z,11.66
2022-10-04T04:56:30.997Z,11.71
2022-10-04T04:59:02.542Z,11.77
2022-10-04T05:01:34.580Z,11.76
2022-10-04T05:04:07.053Z,11.84
2022-10-04T05:06:37.044Z,11.56
2022-10-04T05:09:05.580Z,11.53
2022-10-04T05:11:38.857Z,11.35
2022-10-04T05:14:09.745Z,11.81
2022-10-04T05:16:41.889Z,11.92
2022-10-04T05:19:24.225Z,11.81
2022-10-04T05:21:56.016Z,11.86
2022-10-04T05:24:37.581Z,11.94
2022-10-04T05:27:08.058Z,12.02
2022-10-04T05:29:39.647Z,11.92
2022-10-04T05:32:29.647Z,11.63
2022-10-04T05:34:57.774Z,12.07
2022-10-04T05:37:49.269Z,12.26
2022-10-04T05:40:23.726Z,12.24
2022-10-04T05:42:52.416Z,12.23
2022-10-04T05:45:28.127Z,12.31
2022-10-04T05:47:57.489Z,12.47
2022-10-04T05:50:33.464Z,12.03
2022-10-04T05:53:26.878Z,12.55
2022-10-04T05:56:05.871Z,12.65
2022-10-04T05:58:41.734Z,12.00
2022-10-04T06:01:23.603Z,12.64
2022-10-04T06:04:09.556Z,12.60
2022-10-04T06:07:21.663Z,12.42
2022-10-04T06:10:08.766Z,12.45
2022-10-04T06:13:08.030Z,12.55
2022-10-04T06:15:58.778Z,12.75
2022-10-04T06:19:02.674Z,12.66
2022-10-04T06:21:32.157Z,12.42
2022-10-04T06:24:10.502Z,12.56
2022-10-04T06:26:48.352Z,12.63
2022-10-04T06:29:20.740Z,12.18
2022-10-04T06:31:47.609Z,12.21
2022-10-04T06:34:29.900Z,12.76
2022-10-04T06:36:57.163Z,12.85
2022-10-04T06:39:49.374Z,12.86
2022-10-04T06:42:48.189Z,12.78
2022-10-04T06:45:33.755Z,13.02
2022-10-04T06:48:15.608Z,13.02
2022-10-04T06:50:42.472Z,13.11
2022-10-04T06:54:06.819Z,13.21
2022-10-04T06:56:41.797Z,13.13
2022-10-04T06:59:15.465Z,12.89
2022-10-04T07:01:52.535Z,13.07
2022-10-04T07:05:06.909Z,13.30
2022-10-04T07:07:35.778Z,13.42
2022-10-04T07:10:08.505Z,12.95
2022-10-04T07:12:41.757Z,13.25
2022-10-04T07:15:23.719Z,13.62
2022-10-04T07:17:53.733Z,13.69
2022-10-04T07:20:27.727Z,13.94
2022-10-04T07:23:05.981Z,14.04
2022-10-04T07:25:43.839Z,14.08
2022-10-04T07:28:32.714Z,14.12
2022-10-04T07:31:14.187Z,13.89
2022-10-04T07:33:51.860Z,14.00
2022-10-04T07:36:40.157Z,13.41
2022-10-04T07:39:30.943Z,14.26
2022-10-04T07:42:15.903Z,14.22
2022-10-04T07:44:48.782Z,13.56
2022-10-04T07:47:26.884Z,13.92
2022-10-04T07:49:55.235Z,14.30
2022-10-04T07:52:49.260Z,14.21
2022-10-04T07:55:25.283Z,14.20
2022-10-04T07:58:24.239Z,14.24
2022-10-04T08:01:07.607Z,14.38
2022-10-04T08:03:57.496Z,14.94
2022-10-04T08:06:40.234Z,15.30
2022-10-04T08:09:37.334Z,15.83
2022-10-04T08:12:07.276Z,15.29
2022-10-04T08:14:53.271Z,15.38
2022-10-04T08:17:47.642Z,15.77
2022-10-04T08:20:43.553Z,15.96
2022-10-04T08:23:10.591Z,15.82
2022-10-04T08:26:08.129Z,15.38
2022-10-04T08:29:22.467Z,15.78
2022-10-04T08:32:07.407Z,15.62
2022-10-04T08:35:02.832Z,15.50
2022-10-04T08:37:49.646Z,15.39
2022-10-04T08:40:47.558Z,15.40
2022-10-04T08:43:17.535Z,15.46
2022-10-04T08:46:20.003Z,14.96
2022-10-04T08:49:10.790Z,14.60
2022-10-04T08:52:11.269Z,14.92
2022-10-04T08:55:00.572Z,14.90
2022-10-04T08:57:48.956Z,14.97
2022-10-04T09:00:52.956Z,14.89
2022-10-04T09:03:59.041Z,15.05
2022-10-04T09:06:54.904Z,15.04
2022-10-04T09:10:15.872Z,14.95
2022-10-04T09:12:47.230Z,14.99
2022-10-04T09:15:51.678Z,15.01
2022-10-04T09:18:49.512Z,13.91
2022-10-04T09:21:39.566Z,14.71
2022-10-04T09:24:44.034Z,15.27
2022-10-04T09:27:55.213Z,15.29
2022-10-04T09:30:25.313Z,15.17
2022-10-04T09:33:04.359Z,15.43
2022-10-04T09:35:53.831Z,15.58
2022-10-04T09:38:35.763Z,15.27
2022-10-04T09:41:20.776Z,15.94
2022-10-04T09:44:16.893Z,16.04
2022-10-04T09:46:47.631Z,15.78
2022-10-04T09:49:39.341Z,15.98
2022-10-04T09:52:40.458Z,15.99
2022-10-04T09:55:49.687Z,15.92
2022-10-04T09:58:53.843Z,15.85
2022-10-04T10:01:42.856Z,15.85
2022-10-04T10:05:00.234Z,15.67
2022-10-04T10:07:29.810Z,14.74
2022-10-04T10:10:33.353Z,15.65
2022-10-04T10:13:40.561Z,15.62
2022-10-04T10:16:26.009Z,15.50
2022-10-04T10:19:01.835Z,15.57
2022-10-04T10:21:54.819Z,15.40
2022-10-04T10:24:58.406Z,15.50
2022-10-04T10:27:31.900Z,15.02
2022-10-04T10:30:15.768Z,15.58
2022-10-04T10:33:00.903Z,15.56
2022-10-04T10:35:52.383Z,15.69
2022-10-04T10:38:44.079Z,15.72
2022-10-04T10:41:41.564Z,15.76
2022-10-04T10:44:21.387Z,15.76
2022-10-04T10:47:22.427Z,15.77
2022-10-04T10:51:00.001Z,15.65
2022-10-04T10:53:48.331Z,15.21
2022-10-04T10:56:45.985Z,15.50
2022-10-04T10:59:36.330Z,15.28
2022-10-04T11:02:48.643Z,15.03
2022-10-04T11:05:29.673Z,14.18
2022-10-04T11:08:27.794Z,13.85
2022-10-04T11:11:15.980Z,14.09
2022-10-04T11:14:04.659Z,13.95
2022-10-04T11:17:05.498Z,13.74
2022-10-04T11:20:11.271Z,13.46
2022-10-04T11:23:00.686Z,13.22
2022-10-04T11:25:45.909Z,13.11
2022-10-04T11:28:22.081Z,12.94
2022-10-04T11:31:10.187Z,12.91
2022-10-04T11:34:16.524Z,12.85
2022-10-04T11:37:16.906Z,12.18
2022-10-04T11:39:50.542Z,12.26
2022-10-04T11:42:29.648Z,12.43
2022-10-04T11:45:48.587Z,11.82
2022-10-04T11:48:43.276Z,12.14
2022-10-04T11:51:51.723Z,12.30
2022-10-04T11:54:57.905Z,12.30
2022-10-04T11:57:40.649Z,12.24
2022-10-04T12:00:26.392Z,12.35
2022-10-04T12:03:29.464Z,12.33
2022-10-04T12:05:57.691Z,12.17
2022-10-04T12:08:48.417Z,12.36
2022-10-04T12:11:48.761Z,12.13
2022-10-04T12:14:33.067Z,12.13
2022-10-04T12:17:09.062Z,12.31
2022-10-04T12:19:42.905Z,11.93
2022-10-04T12:22:20.106Z,12.41
2022-10-04T12:24:58.025Z,11.72
2022-10-04T12:28:02.049Z,12.64
2022-10-04T12:30:58.115Z,12.62
2022-10-04T12:33:42.709Z,12.10
2022-10-04T12:36:28.888Z,12.57
2022-10-04T12:39:28.135Z,12.48
2022-10-04T12:42:09.834Z,12.36
2022-10-04T12:44:46.351Z,12.44
2022-10-04T12:47:56.531Z,12.37
2022-10-04T12:50:57.308Z,12.47
2022-10-04T12:53:49.053Z,12.39
2022-10-04T12:56:22.707Z,12.43
2022-10-04T12:59:01.941Z,11.91
2022-10-04T13:01:47.155Z,12.42
2022-10-04T13:04:20.465Z,12.41
2022-10-04T13:07:01.835Z,12.25
2022-10-04T13:10:22.576Z,12.40
2022-10-04T13:13:05.666Z,12.35
2022-10-04T13:19:00.375Z,12.35
2022-10-04T13:21:39.568Z,12.44
2022-10-04T13:24:21.571Z,11.86
2022-10-04T13:27:14.271Z,12.42
2022-10-04T13:29:52.305Z,12.23
2022-10-04T13:32:27.283Z,12.24
2022-10-04T13:34:54.496Z,12.25
2022-10-04T13:37:50.854Z,11.76
2022-10-04T13:40:29.980Z,12.13
2022-10-04T13:43:22.649Z,12.27
2022-10-04T13:46:02.776Z,12.23
2022-10-04T13:49:29.766Z,12.31
2022-10-04T13:52:30.134Z,12.21
2022-10-04T13:55:35.385Z,12.21
2022-10-04T13:58:16.439Z,12.13
2022-10-04T14:01:20.534Z,12.18
2022-10-04T14:04:22.016Z,12.17
2022-10-04T14:07:09.878Z,12.16
2022-10-04T14:09:53.071Z,12.21
2022-10-04T14:12:26.024Z,12.19
2022-10-04T14:15:24.406Z,12.16
2022-10-04T14:18:24.726Z,12.19
2022-10-04T14:20:59.991Z,12.20
2022-10-04T14:23:46.476Z,12.24
2022-10-04T14:26:28.725Z,12.13
2022-10-04T14:29:13.584Z,12.15
2022-10-04T14:32:20.518Z,11.81
2022-10-04T14:34:55.331Z,12.18
2022-10-04T14:37:43.934Z,12.07
2022-10-04T14:40:13.880Z,12.08
2022-10-04T14:43:02.311Z,12.14
2022-10-04T14:46:07.545Z,12.15
2022-10-04T14:48:47.266Z,11.52
2022-10-04T14:51:34.955Z,12.12
2022-10-04T14:54:01.859Z,12.07
2022-10-04T14:56:35.316Z,11.88
2022-10-04T14:59:26.344Z,11.98
2022-10-04T15:02:23.315Z,12.07
2022-10-04T15:05:28.779Z,11.67
2022-10-04T15:08:15.456Z,11.90
2022-10-04T15:10:55.258Z,12.03
2022-10-04T15:13:28.400Z,12.07
2022-10-04T15:16:10.066Z,12.09
2022-10-04T15:18:38.791Z,12.11
2022-10-04T15:21:32.202Z,12.11
2022-10-04T15:24:28.021Z,12.20
2022-10-04T15:26:58.310Z,12.09
2022-10-04T15:29:25.827Z,12.12
2022-10-04T15:32:24.671Z,11.54
2022-10-04T15:35:27.233Z,11.98
2022-10-04T15:38:14.529Z,12.09
2022-10-04T15:41:08.680Z,12.19
2022-10-04T15:43:44.869Z,12.07
2022-10-04T15:46:40.960Z,12.04
2022-10-04T15:49:28.427Z,11.95
2022-10-04T15:52:40.282Z,12.20
2022-10-04T15:55:41.104Z,11.81
2022-10-04T15:58:53.022Z,12.26
2022-10-04T16:01:35.184Z,11.78
2022-10-04T16:04:26.701Z,12.25
2022-10-04T16:07:01.020Z,12.13
2022-10-04T16:09:57.997Z,12.25
2022-10-04T16:12:56.966Z,12.15
2022-10-04T16:15:35.500Z,12.18
2022-10-04T16:18:38.699Z,12.27
2022-10-04T16:21:37.542Z,12.23
2022-10-04T16:24:20.168Z,11.87
2022-10-04T16:26:47.856Z,12.16
2022-10-04T16:30:02.373Z,12.20
2022-10-04T16:33:00.429Z,12.16
2022-10-04T16:35:31.579Z,12.03
2022-10-04T16:38:17.443Z,12.24
2022-10-04T16:40:59.926Z,12.11
2022-10-04T16:43:31.145Z,12.11
2022-10-04T16:46:07.264Z,11.72
2022-10-04T16:48:46.321Z,12.19
2022-10-04T16:51:22.163Z,12.19
2022-10-04T16:54:14.329Z,12.19
2022-10-04T16:57:01.286Z,12.12
2022-10-04T16:59:38.177Z,12.14
2022-10-04T17:02:28.495Z,12.03
2022-10-04T17:05:25.593Z,12.12
2022-10-04T17:08:18.981Z,12.07
2022-10-04T17:10:49.900Z,12.07
2022-10-04T17:13:36.049Z,12.11
2022-10-04T17:16:14.278Z,12.09
2022-10-04T17:18:55.605Z,12.11
2022-10-04T17:21:40.914Z,11.80
2022-10-04T17:24:16.226Z,11.99
2022-10-04T17:27:19.516Z,12.16
2022-10-04T17:30:02.971Z,12.01
2022-10-04T17:32:59.937Z,12.09
2022-10-04T17:35:59.394Z,12.10
2022-10-04T17:38:43.378Z,11.50
2022-10-04T17:41:22.675Z,12.04
2022-10-04T17:43:56.261Z,11.94
2022-10-04T17:46:50.129Z,12.09
2022-10-04T17:50:00.139Z,12.08
2022-10-04T17:52:53.084Z,12.17
2022-10-04T17:55:34.071Z,12.23
2022-10-04T17:58:15.987Z,11.98
2022-10-04T18:00:53.104Z,12.08
2022-10-04T18:03:26.231Z,12.13
2022-10-04T18:05:59.747Z,11.75
2022-10-04T18:08:55.305Z,12.17
2022-10-04T18:11:29.213Z,11.67
2022-10-04T18:14:02.830Z,12.03
2022-10-04T18:16:43.886Z,12.14
2022-10-04T18:19:37.009Z,12.18
2022-10-04T18:22:10.593Z,12.09
2022-10-04T18:24:38.098Z,12.00
2022-10-04T18:27:18.609Z,12.04
2022-10-04T18:30:13.978Z,11.41
2022-10-04T18:33:01.818Z,11.94
2022-10-04T18:35:31.497Z,11.67
2022-10-04T18:38:24.519Z,11.91
2022-10-04T18:41:02.505Z,11.82
2022-10-04T18:43:35.858Z,11.73
2022-10-04T18:46:17.648Z,11.75
2022-10-04T18:48:55.369Z,11.55
2022-10-04T18:51:23.264Z,11.52
2022-10-04T18:53:58.049Z,11.56
2022-10-04T18:56:28.428Z,10.91
2022-10-04T18:59:48.371Z,11.62
2022-10-04T19:02:34.908Z,11.60
2022-10-04T19:05:19.215Z,11.25
2022-10-04T19:07:58.433Z,9.63
2022-10-04T19:10:58.864Z,11.63
2022-10-04T19:13:55.360Z,11.61
2022-10-04T19:16:47.570Z,11.53
2022-10-04T19:19:29.210Z,11.47
2022-10-04T19:22:02.890Z,11.33
2022-10-04T19:24:52.661Z,11.40
2022-10-04T19:27:37.169Z,11.33
2022-10-04T19:30:04.356Z,11.34
2022-10-04T19:32:52.998Z,10.80
2022-10-04T19:35:26.444Z,11.35
2022-10-04T19:38:02.815Z,11.27
2022-10-04T19:40:45.271Z,11.41
2022-10-04T19:43:31.784Z,10.78
2022-10-04T19:46:17.295Z,11.46
2022-10-04T19:48:52.513Z,11.22
2022-10-04T19:51:36.473Z,11.41
2022-10-04T19:54:15.273Z,11.44
2022-10-04T19:56:49.662Z,11.42
2022-10-04T19:59:40.802Z,11.49
2022-10-04T20:02:12.756Z,11.44
2022-10-04T20:04:42.140Z,10.88
2022-10-04T20:07:20.956Z,10.99
2022-10-04T20:09:57.072Z,11.00
2022-10-04T20:13:04.207Z,11.49
2022-10-04T20:15:34.993Z,11.27
2022-10-04T20:18:03.424Z,11.39
2022-10-04T20:20:39.483Z,11.46
2022-10-04T20:23:08.166Z,11.41
2022-10-04T20:25:50.461Z,11.49
2022-10-04T20:28:26.416Z,11.44
2022-10-04T20:30:54.789Z,11.26
2022-10-04T20:33:33.746Z,11.01
2022-10-04T20:36:12.262Z,11.41
2022-10-04T20:39:01.147Z,10.87
2022-10-04T20:41:28.121Z,11.27
2022-10-04T20:44:04.089Z,11.17
2022-10-04T20:46:38.365Z,11.15
2022-10-04T20:49:16.006Z,11.18
2022-10-04T20:51:50.079Z,11.06
2022-10-04T20:54:22.591Z,10.43
2022-10-04T20:56:51.553Z,11.00
2022-10-04T20:59:18.803Z,10.59
2022-10-04T21:02:05.370Z,10.76
2022-10-04T21:04:35.049Z,10.99
2022-10-04T21:07:05.910Z,10.79
2022-10-04T21:09:35.284Z,10.73
2022-10-04T21:12:04.312Z,9.91
2022-10-04T21:14:36.381Z,10.84
2022-10-04T21:17:28.649Z,10.94
2022-10-04T21:19:55.617Z,10.76
2022-10-04T21:22:25.603Z,10.86
2022-10-04T21:24:57.021Z,10.68
2022-10-04T21:27:31.212Z,10.78
2022-10-04T21:29:59.334Z,10.71
2022-10-04T21:32:28.024Z,10.72
2022-10-04T21:34:55.166Z,10.59
2022-10-04T21:37:22.214Z,10.75
2022-10-04T21:39:49.415Z,10.63
2022-10-04T21:42:16.403Z,10.77
2022-10-04T21:44:43.509Z,10.78
2022-10-04T21:47:11.083Z,10.78
2022-10-04T21:49:38.096Z,10.74
2022-10-04T21:52:05.551Z,10.39
2022-10-04T21:54:33.567Z,10.66
2022-10-04T21:57:00.842Z,10.74
2022-10-04T21:59:28.115Z,10.84
2022-10-04T22:01:55.226Z,10.40
2022-10-04T22:04:22.381Z,10.73
2022-10-04T22:06:49.759Z,10.82
2022-10-04T22:09:16.977Z,10.91
2022-10-04T22:11:44.349Z,10.68
2022-10-04T22:14:11.473Z,10.88
2022-10-04T22:16:38.478Z,10.77
2022-10-04T22:19:05.443Z,10.80
2022-10-04T22:21:32.467Z,10.86
2022-10-04T22:23:59.917Z,10.73
2022-10-04T22:26:27.378Z,10.69
2022-10-04T22:28:56.158Z,10.84
2022-10-04T22:31:29.073Z,10.80
2022-10-04T22:33:56.895Z,10.86
2022-10-04T22:36:39.634Z,10.81
2022-10-04T22:39:09.330Z,10.87
2022-10-04T22:41:43.817Z,10.82
2022-10-04T22:44:25.294Z,10.69
2022-10-04T22:46:57.705Z,10.77
2022-10-04T22:49:31.431Z,10.80
2022-10-04T22:52:00.701Z,10.52
2022-10-04T22:54:32.284Z,10.77
2022-10-04T22:57:00.159Z,10.65
2022-10-04T22:59:39.337Z,10.66
2022-10-04T23:02:15.021Z,10.16
2022-10-04T23:04:52.438Z,10.83
2022-10-04T23:07:20.330Z,10.79
2022-10-04T23:09:47.582Z,10.55
2022-10-04T23:12:14.926Z,10.67
2022-10-04T23:14:42.293Z,10.72
2022-10-04T23:17:31.545Z,10.28
2022-10-04T23:20:10.189Z,10.58
2022-10-04T23:22:37.618Z,10.71
2022-10-04T23:25:23.588Z,9.71
2022-10-04T23:27:50.617Z,10.47
2022-10-04T23:30:22.783Z,10.30
2022-10-04T23:32:53.528Z,10.72
2022-10-04T23:35:25.496Z,10.32
2022-10-04T23:37:53.153Z,10.72
2022-10-04T23:40:23.377Z,10.47
2022-10-04T23:42:53.892Z,10.78
2022-10-04T23:45:27.056Z,10.59
2022-10-04T23:47:59.265Z,10.32
2022-10-04T23:50:37.694Z,10.70
2022-10-04T23:53:10.469Z,10.57
2022-10-04T23:55:43.025Z,10.75
2022-10-04T23:58:19.600Z,10.83
